createdAt,value
2019-04-20T00:00:19.005Z,1024.65
2019-04-20T00:01:23.463Z,1024.66
2019-04-20T00:02:20.619Z,1024.63
2019-04-20T00:03:18.082Z,1024.58
2019-04-20T00:04:23.372Z,1024.58
2019-04-20T00:05:19.076Z,1024.66
2019-04-20T00:06:17.731Z,1024.62
2019-04-20T00:07:18.713Z,1024.59
2019-04-20T00:08:23.392Z,1024.60
2019-04-20T00:09:24.047Z,1024.61
2019-04-20T00:10:21.585Z,1024.56
2019-04-20T00:11:26.239Z,1024.58
2019-04-20T00:12:33.242Z,1024.60
2019-04-20T00:13:28.969Z,1024.67
2019-04-20T00:14:23.971Z,1024.61
2019-04-20T00:15:19.696Z,1024.61
2019-04-20T00:16:18.810Z,1024.58
2019-04-20T00:17:17.883Z,1024.53
2019-04-20T00:18:19.065Z,1024.53
2019-04-20T00:19:26.116Z,1024.56
2019-04-20T00:20:24.139Z,1024.56
2019-04-20T00:21:19.184Z,1024.61
2019-04-20T00:22:18.775Z,1024.54
2019-04-20T00:23:24.392Z,1024.59
2019-04-20T00:24:23.643Z,1024.55
2019-04-20T00:25:20.977Z,1024.56
2019-04-20T00:26:32.198Z,1024.60
2019-04-20T00:27:38.438Z,1024.53
2019-04-20T00:28:35.203Z,1024.59
2019-04-20T00:29:35.297Z,1024.57
2019-04-20T00:30:40.109Z,1024.52
2019-04-20T00:31:33.823Z,1024.52
2019-04-20T00:32:35.975Z,1024.55
2019-04-20T00:33:34.975Z,1024.54
2019-04-20T00:34:25.590Z,1024.50
2019-04-20T00:35:18.856Z,1024.54
2019-04-20T00:36:18.034Z,1024.54
2019-04-20T00:37:17.396Z,1024.50
2019-04-20T00:38:18.048Z,1024.47
2019-04-20T00:39:18.887Z,1024.48
2019-04-20T00:40:17.369Z,1024.46
2019-04-20T00:41:20.346Z,1024.51
2019-04-20T00:42:19.396Z,1024.50
2019-04-20T00:43:21.205Z,1024.49
2019-04-20T00:44:23.334Z,1024.48
2019-04-20T00:45:24.048Z,1024.48
2019-04-20T00:46:24.966Z,1024.49
2019-04-20T00:47:32.316Z,1024.50
2019-04-20T00:48:32.698Z,1024.48
2019-04-20T00:49:30.602Z,1024.47
2019-04-20T00:50:35.211Z,1024.45
2019-04-20T00:51:37.628Z,1024.45
2019-04-20T00:52:31.097Z,1024.42
2019-04-20T00:53:26.007Z,1024.44
2019-04-20T00:54:18.213Z,1024.47
2019-04-20T00:55:20.964Z,1024.42
2019-04-20T00:56:18.236Z,1024.42
2019-04-20T00:57:24.446Z,1024.47
2019-04-20T00:58:27.358Z,1024.45
2019-04-20T00:59:31.759Z,1024.43
2019-04-20T01:00:39.775Z,1024.45
2019-04-20T01:01:37.792Z,1024.44
2019-04-20T01:02:29.632Z,1024.45
2019-04-20T01:03:33.869Z,1024.42
2019-04-20T01:04:38.899Z,1024.46
2019-04-20T01:05:38.861Z,1024.44
2019-04-20T01:06:31.741Z,1024.50
2019-04-20T01:07:32.092Z,1024.48
2019-04-20T01:08:19.096Z,1024.43
2019-04-20T01:09:18.225Z,1024.54
2019-04-20T01:10:17.369Z,1024.50
2019-04-20T01:11:27.035Z,1024.50
2019-04-20T01:12:23.310Z,1024.48
2019-04-20T01:13:22.839Z,1024.51
2019-04-20T01:14:28.637Z,1024.49
2019-04-20T01:15:30.146Z,1024.55
2019-04-20T01:16:29.614Z,1024.51
2019-04-20T01:17:17.956Z,1024.53
2019-04-20T01:18:16.956Z,1024.54
2019-04-20T01:19:19.302Z,1024.56
2019-04-20T01:20:16.947Z,1024.46
2019-04-20T01:21:22.855Z,1024.55
2019-04-20T01:22:20.569Z,1024.52
2019-04-20T01:23:22.321Z,1024.53
2019-04-20T01:24:23.874Z,1024.54
2019-04-20T01:25:26.465Z,1024.58
2019-04-20T01:26:20.621Z,1024.56
2019-04-20T01:27:36.670Z,1024.53
2019-04-20T01:28:31.016Z,1024.51
2019-04-20T01:29:27.961Z,1024.51
2019-04-20T01:30:24.949Z,1024.56
2019-04-20T01:31:27.144Z,1024.55
2019-04-20T01:32:26.675Z,1024.56
2019-04-20T01:33:34.339Z,1024.55
2019-04-20T01:34:33.728Z,1024.54
2019-04-20T01:35:36.168Z,1024.54
2019-04-20T01:36:37.073Z,1024.55
2019-04-20T01:37:31.713Z,1024.52
2019-04-20T01:38:35.966Z,1024.51
2019-04-20T01:39:27.630Z,1024.53
2019-04-20T01:40:19.010Z,1024.55
2019-04-20T01:41:16.707Z,1024.54
2019-04-20T01:42:17.278Z,1024.50
2019-04-20T01:43:16.694Z,1024.53
2019-04-20T01:44:18.927Z,1024.44
2019-04-20T01:45:24.749Z,1024.51
2019-04-20T01:46:23.083Z,1024.53
2019-04-20T01:47:17.635Z,1024.52
2019-04-20T01:48:23.962Z,1024.51
2019-04-20T01:49:22.215Z,1024.53
2019-04-20T01:50:22.957Z,1024.65
2019-04-20T01:51:23.395Z,1024.59
2019-04-20T01:52:23.371Z,1024.55
2019-04-20T01:53:34.294Z,1024.56
2019-04-20T01:54:31.257Z,1024.57
2019-04-20T01:55:34.661Z,1024.52
2019-04-20T01:56:31.642Z,1024.59
2019-04-20T01:57:24.749Z,1024.59
2019-04-20T01:58:37.701Z,1024.62
2019-04-20T01:59:29.426Z,1024.56
2019-04-20T02:00:23.342Z,1024.62
2019-04-20T02:01:23.067Z,1024.62
2019-04-20T02:02:20.863Z,1024.63
2019-04-20T02:03:17.487Z,1024.68
2019-04-20T02:04:21.006Z,1024.61
2019-04-20T02:05:24.952Z,1024.57
2019-04-20T02:06:20.220Z,1024.62
2019-04-20T02:07:18.475Z,1024.65
2019-04-20T02:08:21.437Z,1024.66
2019-04-20T02:09:21.115Z,1024.63
2019-04-20T02:10:18.661Z,1024.67
2019-04-20T02:11:21.973Z,1024.60
2019-04-20T02:12:23.517Z,1024.60
2019-04-20T02:13:17.418Z,1024.57
2019-04-20T02:14:26.638Z,1024.66
2019-04-20T02:15:26.919Z,1024.62
2019-04-20T02:16:27.695Z,1024.65
2019-04-20T02:17:28.385Z,1024.62
2019-04-20T02:18:30.452Z,1024.65
2019-04-20T02:19:33.406Z,1024.68
2019-04-20T02:20:37.866Z,1024.64
2019-04-20T02:21:33.760Z,1024.68
2019-04-20T02:22:37.274Z,1024.62
2019-04-20T02:23:29.301Z,1024.62
2019-04-20T02:24:17.879Z,1024.68
2019-04-20T02:25:16.342Z,1024.59
2019-04-20T02:26:16.224Z,1024.62
2019-04-20T02:27:19.691Z,1024.62
2019-04-20T02:28:34.050Z,1024.66
2019-04-20T02:29:40.458Z,1024.61
2019-04-20T02:32:06.734Z,1024.63
2019-04-20T02:32:51.131Z,1024.67
2019-04-20T02:33:52.572Z,1024.64
2019-04-20T02:34:55.611Z,1024.65
2019-04-20T02:35:52.795Z,1024.62
2019-04-20T02:38:05.644Z,1024.68
2019-04-20T02:40:50.551Z,1024.69
2019-04-20T02:41:51.674Z,1024.70
2019-04-20T02:42:50.834Z,1024.71
2019-04-20T02:45:12.749Z,1024.70
2019-04-20T02:45:45.359Z,1024.75
2019-04-20T02:46:55.356Z,1024.73
2019-04-20T02:48:58.587Z,1024.70
2019-04-20T02:49:51.396Z,1024.67
2019-04-20T02:50:49.927Z,1024.71
2019-04-20T02:51:52.698Z,1024.72
2019-04-20T02:54:46.434Z,1024.70
2019-04-20T02:56:02.114Z,1024.78
2019-04-20T02:57:05.292Z,1024.67
2019-04-20T02:57:55.314Z,1024.69
2019-04-20T02:58:58.035Z,1024.65
2019-04-20T03:00:03.280Z,1024.72
2019-04-20T03:00:39.165Z,1024.64
2019-04-20T03:01:36.480Z,1024.66
2019-04-20T03:02:33.550Z,1024.58
2019-04-20T03:03:27.677Z,1024.67
2019-04-20T03:04:25.698Z,1024.67
2019-04-20T03:05:30.767Z,1024.65
2019-04-20T03:06:29.553Z,1024.66
2019-04-20T03:07:32.952Z,1024.59
2019-04-20T03:08:33.062Z,1024.65
2019-04-20T03:09:40.333Z,1024.61
2019-04-20T03:10:46.396Z,1024.59
2019-04-20T03:11:49.868Z,1024.59
2019-04-20T03:12:39.041Z,1024.64
2019-04-20T03:13:36.817Z,1024.59
2019-04-20T03:14:30.336Z,1024.60
2019-04-20T03:15:37.925Z,1024.61
2019-04-20T03:16:35.661Z,1024.56
2019-04-20T03:17:38.992Z,1024.62
2019-04-20T03:18:35.057Z,1024.57
2019-04-20T03:19:36.203Z,1024.62
2019-04-20T03:20:43.372Z,1024.59
2019-04-20T03:21:39.127Z,1024.63
2019-04-20T03:23:02.395Z,1024.58
2019-04-20T03:23:42.830Z,1024.62
2019-04-20T03:24:46.884Z,1024.64
2019-04-20T03:25:39.458Z,1024.61
2019-04-20T03:26:39.065Z,1024.59
2019-04-20T03:27:33.237Z,1024.63
2019-04-20T03:28:37.333Z,1024.63
2019-04-20T03:29:40.910Z,1024.64
2019-04-20T03:31:25.038Z,1024.61
2019-04-20T03:31:58.669Z,1024.69
2019-04-20T03:34:03.453Z,1024.66
2019-04-20T03:35:01.163Z,1024.72
2019-04-20T03:35:44.869Z,1024.68
2019-04-20T03:36:43.085Z,1024.70
2019-04-20T03:37:42.705Z,1024.67
2019-04-20T03:38:37.888Z,1024.74
2019-04-20T03:39:33.437Z,1024.73
2019-04-20T03:40:29.650Z,1024.72
2019-04-20T03:41:24.448Z,1024.68
2019-04-20T03:42:16.403Z,1024.70
2019-04-20T03:43:15.974Z,1024.77
2019-04-20T03:44:19.177Z,1024.74
2019-04-20T03:45:20.092Z,1024.67
2019-04-20T03:46:19.942Z,1024.77
2019-04-20T03:47:28.883Z,1024.72
2019-04-20T03:48:38.187Z,1024.75
2019-04-20T03:49:44.621Z,1024.80
2019-04-20T03:51:40.169Z,1024.72
2019-04-20T03:52:30.953Z,1024.75
2019-04-20T03:53:34.445Z,1024.74
2019-04-20T03:54:32.162Z,1024.72
2019-04-20T03:55:35.566Z,1024.68
2019-04-20T03:56:34.611Z,1024.76
2019-04-20T03:57:38.339Z,1024.72
2019-04-20T03:58:33.343Z,1024.71
2019-04-20T03:59:36.886Z,1024.77
2019-04-20T04:00:30.537Z,1024.72
2019-04-20T04:02:01.679Z,1024.75
2019-04-20T04:02:47.931Z,1024.79
2019-04-20T04:03:45.959Z,1024.79
2019-04-20T04:04:38.688Z,1024.80
2019-04-20T04:05:33.973Z,1024.77
2019-04-20T04:06:26.342Z,1024.78
2019-04-20T04:07:26.576Z,1024.73
2019-04-20T04:08:26.598Z,1024.73
2019-04-20T04:09:25.764Z,1024.75
2019-04-20T04:10:30.179Z,1024.69
2019-04-20T04:11:35.493Z,1024.69
2019-04-20T04:12:23.668Z,1024.68
2019-04-20T04:13:16.801Z,1024.72
2019-04-20T04:14:15.726Z,1024.71
2019-04-20T04:15:15.049Z,1024.72
2019-04-20T04:16:18.308Z,1024.73
2019-04-20T04:17:21.193Z,1024.67
2019-04-20T04:18:25.493Z,1024.74
2019-04-20T04:19:21.333Z,1024.76
2019-04-20T04:20:19.099Z,1024.71
2019-04-20T04:21:21.995Z,1024.69
2019-04-20T04:22:31.256Z,1024.72
2019-04-20T04:23:35.725Z,1024.76
2019-04-20T04:24:26.125Z,1024.73
2019-04-20T04:25:24.960Z,1024.76
2019-04-20T04:26:30.058Z,1024.72
2019-04-20T04:27:37.017Z,1024.75
2019-04-20T04:28:31.405Z,1024.71
2019-04-20T04:29:39.682Z,1024.75
2019-04-20T04:30:32.080Z,1024.77
2019-04-20T04:31:39.105Z,1024.69
2019-04-20T04:32:58.657Z,1024.73
2019-04-20T04:34:34.929Z,1024.73
2019-04-20T04:35:26.474Z,1024.75
2019-04-20T04:36:30.120Z,1024.78
2019-04-20T04:37:34.962Z,1024.79
2019-04-20T04:38:37.436Z,1024.77
2019-04-20T04:39:35.285Z,1024.78
2019-04-20T04:40:44.397Z,1024.77
2019-04-20T04:41:38.076Z,1024.75
2019-04-20T04:42:45.495Z,1024.76
2019-04-20T04:43:31.618Z,1024.81
2019-04-20T04:44:30.339Z,1024.79
2019-04-20T04:45:18.049Z,1024.84
2019-04-20T04:46:14.708Z,1024.81
2019-04-20T04:47:15.293Z,1024.85
2019-04-20T04:48:21.393Z,1024.83
2019-04-20T04:49:25.773Z,1024.81
2019-04-20T04:50:20.813Z,1024.78
2019-04-20T04:51:21.255Z,1024.83
2019-04-20T04:52:22.711Z,1024.84
2019-04-20T04:53:28.442Z,1024.83
2019-04-20T04:54:26.800Z,1024.83
2019-04-20T04:55:25.695Z,1024.80
2019-04-20T04:56:18.902Z,1024.86
2019-04-20T04:57:15.775Z,1024.79
2019-04-20T04:58:14.876Z,1024.83
2019-04-20T04:59:14.939Z,1024.83
2019-04-20T05:00:20.058Z,1024.87
2019-04-20T05:01:20.704Z,1024.83
2019-04-20T05:02:15.979Z,1024.86
2019-04-20T05:03:35.337Z,1024.90
2019-04-20T05:04:31.693Z,1024.88
2019-04-20T05:05:35.844Z,1024.93
2019-04-20T05:06:29.926Z,1024.92
2019-04-20T05:07:32.207Z,1025.01
2019-04-20T05:08:24.061Z,1024.95
2019-04-20T05:09:17.182Z,1024.96
2019-04-20T05:10:14.446Z,1024.95
2019-04-20T05:11:15.225Z,1024.94
2019-04-20T05:12:19.667Z,1024.97
2019-04-20T05:13:15.743Z,1024.96
2019-04-20T05:14:21.627Z,1024.98
2019-04-20T05:15:31.059Z,1024.97
2019-04-20T05:16:37.384Z,1024.97
2019-04-20T05:17:40.636Z,1024.97
2019-04-20T05:18:41.307Z,1025.01
2019-04-20T05:19:37.000Z,1025.04
2019-04-20T05:20:37.162Z,1025.01
2019-04-20T05:21:39.861Z,1025.01
2019-04-20T05:22:38.971Z,1025.01
2019-04-20T05:23:28.278Z,1024.99
2019-04-20T05:24:29.230Z,1025.08
2019-04-20T05:25:31.028Z,1025.05
2019-04-20T05:26:37.562Z,1024.94
2019-04-20T05:27:36.427Z,1024.96
2019-04-20T05:28:27.505Z,1024.94
2019-04-20T05:29:21.534Z,1025.00
2019-04-20T05:30:16.032Z,1024.97
2019-04-20T05:31:15.565Z,1025.02
2019-04-20T05:32:19.639Z,1024.98
2019-04-20T05:33:25.448Z,1025.00
2019-04-20T05:34:38.936Z,1024.97
2019-04-20T05:35:40.762Z,1024.92
2019-04-20T05:36:37.276Z,1024.92
2019-04-20T05:37:45.781Z,1025.02
2019-04-20T05:38:41.477Z,1024.96
2019-04-20T05:39:38.237Z,1025.04
2019-04-20T05:40:38.980Z,1025.00
2019-04-20T05:41:31.056Z,1024.96
2019-04-20T05:42:37.286Z,1025.00
2019-04-20T05:43:33.008Z,1025.00
2019-04-20T05:44:39.712Z,1025.04
2019-04-20T05:45:29.979Z,1025.00
2019-04-20T05:46:30.839Z,1024.98
2019-04-20T05:47:33.194Z,1025.05
2019-04-20T05:48:33.692Z,1025.03
2019-04-20T05:49:46.821Z,1024.94
2019-04-20T05:50:33.143Z,1024.99
2019-04-20T05:51:40.703Z,1024.99
2019-04-20T05:52:49.160Z,1024.94
2019-04-20T05:53:38.501Z,1024.92
2019-04-20T05:54:38.841Z,1024.93
2019-04-20T05:55:35.901Z,1024.99
2019-04-20T05:56:40.270Z,1024.94
2019-04-20T05:57:35.955Z,1025.01
2019-04-20T05:58:34.220Z,1024.95
2019-04-20T05:59:34.954Z,1025.02
2019-04-20T06:00:40.614Z,1025.01
2019-04-20T06:01:38.019Z,1024.99
2019-04-20T06:02:38.870Z,1025.00
2019-04-20T06:03:32.240Z,1024.99
2019-04-20T06:04:46.207Z,1024.99
2019-04-20T06:05:38.559Z,1025.04
2019-04-20T06:06:43.262Z,1024.97
2019-04-20T06:07:38.407Z,1024.97
2019-04-20T06:08:46.481Z,1025.04
2019-04-20T06:09:33.678Z,1025.04
2019-04-20T06:10:38.439Z,1025.03
2019-04-20T06:12:04.820Z,1025.11
2019-04-20T06:12:36.135Z,1025.02
2019-04-20T06:13:27.747Z,1025.02
2019-04-20T06:14:25.673Z,1025.04
2019-04-20T06:15:36.555Z,1024.97
2019-04-20T06:16:40.364Z,1025.00
2019-04-20T06:17:39.595Z,1024.98
2019-04-20T06:18:32.094Z,1024.98
2019-04-20T06:19:35.934Z,1024.95
2019-04-20T06:20:36.700Z,1024.96
2019-04-20T06:21:38.987Z,1024.99
2019-04-20T06:22:42.755Z,1024.97
2019-04-20T06:23:50.872Z,1024.93
2019-04-20T06:24:57.244Z,1024.97
2019-04-20T06:25:44.218Z,1024.93
2019-04-20T06:26:47.057Z,1024.87
2019-04-20T06:27:39.915Z,1024.91
2019-04-20T06:28:33.756Z,1024.88
2019-04-20T06:29:34.770Z,1024.84
2019-04-20T06:30:32.213Z,1024.91
2019-04-20T06:31:39.814Z,1024.94
2019-04-20T06:32:38.902Z,1024.86
2019-04-20T06:33:53.367Z,1024.93
2019-04-20T06:35:56.607Z,1024.93
2019-04-20T06:36:40.040Z,1024.93
2019-04-20T06:37:39.157Z,1024.99
2019-04-20T06:38:56.058Z,1025.02
2019-04-20T06:41:02.386Z,1024.98
2019-04-20T06:41:53.874Z,1025.00
2019-04-20T06:42:34.310Z,1024.95
2019-04-20T06:43:42.086Z,1024.99
2019-04-20T06:44:36.968Z,1024.99
2019-04-20T06:45:48.912Z,1025.02
2019-04-20T06:46:37.460Z,1024.97
2019-04-20T06:47:39.712Z,1024.97
2019-04-20T06:48:41.423Z,1024.94
2019-04-20T06:49:35.343Z,1024.97
2019-04-20T06:50:29.256Z,1025.00
2019-04-20T06:51:36.125Z,1025.01
2019-04-20T06:52:45.312Z,1025.00
2019-04-20T06:53:39.063Z,1025.01
2019-04-20T06:54:33.909Z,1024.97
2019-04-20T06:55:42.879Z,1024.99
2019-04-20T06:56:36.422Z,1025.01
2019-04-20T06:57:34.698Z,1025.00
2019-04-20T06:58:52.220Z,1025.04
2019-04-20T06:59:39.316Z,1025.12
2019-04-20T07:00:30.855Z,1025.04
2019-04-20T07:01:47.079Z,1025.05
2019-04-20T07:02:38.626Z,1025.06
2019-04-20T07:04:41.917Z,1025.12
2019-04-20T07:05:32.593Z,1025.15
2019-04-20T07:07:38.782Z,1025.12
2019-04-20T07:08:51.132Z,1025.10
2019-04-20T07:09:46.234Z,1025.09
2019-04-20T07:10:40.725Z,1025.06
2019-04-20T07:11:35.854Z,1025.04
2019-04-20T07:12:34.373Z,1025.07
2019-04-20T07:13:27.402Z,1025.07
2019-04-20T07:14:27.239Z,1025.11
2019-04-20T07:15:30.256Z,1025.15
2019-04-20T07:16:35.826Z,1025.15
2019-04-20T07:17:45.569Z,1025.07
2019-04-20T07:18:39.326Z,1025.12
2019-04-20T07:19:28.945Z,1025.13
2019-04-20T07:20:39.638Z,1025.06
2019-04-20T07:21:49.142Z,1025.08
2019-04-20T07:22:40.758Z,1025.10
2019-04-20T07:23:59.106Z,1025.12
2019-04-20T07:24:43.420Z,1025.09
2019-04-20T07:25:38.781Z,1025.11
2019-04-20T07:26:37.270Z,1025.13
2019-04-20T07:27:36.120Z,1025.18
2019-04-20T07:28:41.114Z,1025.09
2019-04-20T07:29:40.787Z,1025.13
2019-04-20T07:30:35.321Z,1025.12
2019-04-20T07:31:29.388Z,1025.12
2019-04-20T07:32:40.426Z,1025.15
2019-04-20T07:33:32.202Z,1025.06
2019-04-20T07:34:34.892Z,1025.08
2019-04-20T07:35:35.654Z,1025.07
2019-04-20T07:36:40.024Z,1025.09
2019-04-20T07:38:10.031Z,1025.20
2019-04-20T07:38:40.496Z,1025.16
2019-04-20T07:39:33.054Z,1025.14
2019-04-20T07:40:37.472Z,1025.12
2019-04-20T07:41:45.995Z,1025.16
2019-04-20T07:42:52.371Z,1025.14
2019-04-20T07:43:30.141Z,1025.18
2019-04-20T07:44:43.588Z,1025.19
2019-04-20T07:46:47.148Z,1025.14
2019-04-20T07:47:40.551Z,1025.18
2019-04-20T07:48:33.817Z,1025.20
2019-04-20T07:49:36.936Z,1025.18
2019-04-20T07:50:31.755Z,1025.14
2019-04-20T07:51:21.061Z,1025.15
2019-04-20T07:52:14.384Z,1025.18
2019-04-20T07:53:32.115Z,1025.22
2019-04-20T07:54:40.191Z,1025.17
2019-04-20T07:56:40.723Z,1025.21
2019-04-20T07:57:30.809Z,1025.13
2019-04-20T07:58:27.584Z,1025.17
2019-04-20T07:59:24.350Z,1025.15
2019-04-20T08:00:44.857Z,1025.10
2019-04-20T08:01:46.403Z,1025.12
2019-04-20T08:02:46.920Z,1025.10
2019-04-20T08:03:42.816Z,1025.13
2019-04-20T08:04:32.340Z,1025.09
2019-04-20T08:05:25.619Z,1025.09
2019-04-20T08:06:20.046Z,1025.11
2019-04-20T08:07:14.612Z,1025.10
2019-04-20T08:08:28.232Z,1025.11
2019-04-20T08:09:25.799Z,1025.02
2019-04-20T08:10:32.432Z,1025.05
2019-04-20T08:11:36.045Z,1025.07
2019-04-20T08:12:48.794Z,1025.02
2019-04-20T08:13:40.338Z,1025.06
2019-04-20T08:14:39.860Z,1024.98
2019-04-20T08:15:46.232Z,1025.02
2019-04-20T08:16:47.204Z,1024.98
2019-04-20T08:17:37.504Z,1024.98
2019-04-20T08:18:51.437Z,1025.02
2019-04-20T08:19:36.740Z,1025.03
2019-04-20T08:20:31.434Z,1025.05
2019-04-20T08:21:35.127Z,1024.95
2019-04-20T08:22:33.906Z,1025.02
2019-04-20T08:23:33.599Z,1024.94
2019-04-20T08:24:27.922Z,1024.96
2019-04-20T08:25:23.788Z,1024.93
2019-04-20T08:26:21.311Z,1024.94
2019-04-20T08:27:16.151Z,1024.95
2019-04-20T08:28:20.850Z,1025.03
2019-04-20T08:29:21.621Z,1024.94
2019-04-20T08:30:29.168Z,1024.92
2019-04-20T08:31:26.905Z,1024.96
2019-04-20T08:32:34.537Z,1024.91
2019-04-20T08:33:30.877Z,1024.98
2019-04-20T08:34:35.131Z,1024.94
2019-04-20T08:35:39.785Z,1024.95
2019-04-20T08:36:36.027Z,1024.93
2019-04-20T08:37:31.086Z,1025.00
2019-04-20T08:39:02.176Z,1024.97
2019-04-20T08:39:48.187Z,1024.97
2019-04-20T08:40:31.399Z,1024.95
2019-04-20T08:41:29.757Z,1025.02
2019-04-20T08:42:39.964Z,1025.00
2019-04-20T08:43:42.345Z,1025.00
2019-04-20T08:45:36.171Z,1025.05
2019-04-20T08:46:36.686Z,1024.99
2019-04-20T08:47:50.276Z,1024.98
2019-04-20T08:48:38.589Z,1024.98
2019-04-20T08:49:35.009Z,1024.95
2019-04-20T08:50:34.146Z,1024.99
2019-04-20T08:51:45.102Z,1024.92
2019-04-20T08:52:57.231Z,1024.96
2019-04-20T08:53:39.426Z,1024.91
2019-04-20T08:54:32.950Z,1024.93
2019-04-20T08:55:29.967Z,1024.91
2019-04-20T08:56:25.945Z,1024.96
2019-04-20T08:57:13.513Z,1024.89
2019-04-20T08:58:12.055Z,1024.94
2019-04-20T08:59:12.006Z,1024.94
2019-04-20T09:00:13.196Z,1024.87
2019-04-20T09:01:18.395Z,1024.88
2019-04-20T09:02:15.727Z,1024.93
2019-04-20T09:03:19.357Z,1024.94
2019-04-20T09:04:20.194Z,1024.86
2019-04-20T09:05:29.407Z,1024.85
2019-04-20T09:06:29.399Z,1024.85
2019-04-20T09:07:19.626Z,1024.77
2019-04-20T09:08:21.158Z,1024.83
2019-04-20T09:10:34.363Z,1024.84
2019-04-20T09:11:31.178Z,1024.81
2019-04-20T09:12:33.354Z,1024.82
2019-04-20T09:13:24.577Z,1024.77
2019-04-20T09:14:14.075Z,1024.81
2019-04-20T09:15:12.558Z,1024.77
2019-04-20T09:16:13.028Z,1024.73
2019-04-20T09:17:18.300Z,1024.79
2019-04-20T09:18:21.409Z,1024.73
2019-04-20T09:19:15.916Z,1024.76
2019-04-20T09:20:26.501Z,1024.75
2019-04-20T09:21:24.264Z,1024.68
2019-04-20T09:22:24.398Z,1024.79
2019-04-20T09:23:26.550Z,1024.78
2019-04-20T09:24:38.317Z,1024.74
2019-04-20T09:26:32.763Z,1024.80
2019-04-20T09:27:23.070Z,1024.81
2019-04-20T09:28:22.453Z,1024.75
2019-04-20T09:29:27.154Z,1024.77
2019-04-20T09:30:25.797Z,1024.76
2019-04-20T09:31:25.784Z,1024.73
2019-04-20T09:32:31.400Z,1024.83
2019-04-20T09:33:33.620Z,1024.84
2019-04-20T09:34:24.633Z,1024.82
2019-04-20T09:35:30.232Z,1024.83
2019-04-20T09:36:30.400Z,1024.73
2019-04-20T09:37:30.597Z,1024.77
2019-04-20T09:38:30.506Z,1024.76
2019-04-20T09:39:21.393Z,1024.81
2019-04-20T09:40:32.111Z,1024.78
2019-04-20T09:41:34.506Z,1024.80
2019-04-20T09:42:12.583Z,1024.79
2019-04-20T09:43:15.194Z,1024.77
2019-04-20T09:44:13.398Z,1024.79
2019-04-20T09:45:20.241Z,1024.79
2019-04-20T09:46:13.672Z,1024.75
2019-04-20T09:47:12.347Z,1024.78
2019-04-20T09:48:19.262Z,1024.75
2019-04-20T09:49:20.109Z,1024.75
2019-04-20T09:50:27.843Z,1024.75
2019-04-20T09:51:30.216Z,1024.77
2019-04-20T09:52:28.005Z,1024.77
2019-04-20T09:53:24.892Z,1024.75
2019-04-20T09:54:32.677Z,1024.72
2019-04-20T09:55:26.981Z,1024.75
2019-04-20T09:56:28.117Z,1024.69
2019-04-20T09:57:32.186Z,1024.69
2019-04-20T09:58:24.033Z,1024.68
2019-04-20T09:59:33.181Z,1024.71
2019-04-20T10:00:30.881Z,1024.66
2019-04-20T10:01:22.742Z,1024.67
2019-04-20T10:02:18.843Z,1024.65
2019-04-20T10:03:12.948Z,1024.70
2019-04-20T10:04:11.381Z,1024.67
2019-04-20T10:05:11.574Z,1024.72
2019-04-20T10:06:11.660Z,1024.66
2019-04-20T10:07:15.985Z,1024.73
2019-04-20T10:08:13.530Z,1024.66
2019-04-20T10:09:11.627Z,1024.73
2019-04-20T10:10:21.698Z,1024.73
2019-04-20T10:11:12.232Z,1024.71
2019-04-20T10:12:11.299Z,1024.60
2019-04-20T10:13:11.307Z,1024.67
2019-04-20T10:14:12.317Z,1024.72
2019-04-20T10:15:17.720Z,1024.63
2019-04-20T10:16:13.452Z,1024.65
2019-04-20T10:17:11.831Z,1024.68
2019-04-20T10:18:12.065Z,1024.61
2019-04-20T10:19:11.967Z,1024.61
2019-04-20T10:20:19.325Z,1024.69
2019-04-20T10:21:12.138Z,1024.63
2019-04-20T10:22:11.146Z,1024.66
2019-04-20T10:23:12.327Z,1024.56
2019-04-20T10:24:12.322Z,1024.57
2019-04-20T10:25:11.117Z,1024.61
2019-04-20T10:26:12.052Z,1024.48
2019-04-20T10:27:12.493Z,1024.59
2019-04-20T10:28:11.790Z,1024.60
2019-04-20T10:29:11.047Z,1024.60
2019-04-20T10:30:12.462Z,1024.56
2019-04-20T10:31:11.027Z,1024.57
2019-04-20T10:32:14.521Z,1024.59
2019-04-20T10:33:13.299Z,1024.58
2019-04-20T10:34:11.611Z,1024.61
2019-04-20T10:35:14.699Z,1024.62
2019-04-20T10:36:11.981Z,1024.60
2019-04-20T10:37:11.459Z,1024.60
2019-04-20T10:38:11.505Z,1024.63
2019-04-20T10:39:11.033Z,1024.62
2019-04-20T10:40:11.516Z,1024.51
2019-04-20T10:41:15.897Z,1024.60
2019-04-20T10:42:12.290Z,1024.53
2019-04-20T10:43:12.050Z,1024.56
2019-04-20T10:44:11.020Z,1024.58
2019-04-20T10:45:10.958Z,1024.59
2019-04-20T10:46:11.135Z,1024.62
2019-04-20T10:47:11.318Z,1024.60
2019-04-20T10:48:10.957Z,1024.57
2019-04-20T10:49:11.393Z,1024.62
2019-04-20T10:50:11.316Z,1024.58
2019-04-20T10:51:10.821Z,1024.60
2019-04-20T10:52:11.671Z,1024.57
2019-04-20T10:53:11.993Z,1024.53
2019-04-20T10:54:12.092Z,1024.50
2019-04-20T10:55:10.768Z,1024.53
2019-04-20T10:56:11.691Z,1024.51
2019-04-20T10:57:10.759Z,1024.64
2019-04-20T10:58:11.449Z,1024.58
2019-04-20T10:59:11.858Z,1024.60
2019-04-20T11:00:10.719Z,1024.53
2019-04-20T11:01:11.546Z,1024.50
2019-04-20T11:02:11.990Z,1024.50
2019-04-20T11:03:10.679Z,1024.49
2019-04-20T11:04:10.690Z,1024.49
2019-04-20T11:05:10.846Z,1024.55
2019-04-20T11:06:11.058Z,1024.51
2019-04-20T11:07:10.653Z,1024.49
2019-04-20T11:08:10.745Z,1024.49
2019-04-20T11:09:10.935Z,1024.52
2019-04-20T11:10:17.917Z,1024.51
2019-04-20T11:11:17.957Z,1024.55
2019-04-20T11:12:12.463Z,1024.51
2019-04-20T11:13:11.725Z,1024.58
2019-04-20T11:14:19.063Z,1024.51
2019-04-20T11:15:12.480Z,1024.41
2019-04-20T11:16:10.779Z,1024.47
2019-04-20T11:17:10.559Z,1024.49
2019-04-20T11:18:11.318Z,1024.51
2019-04-20T11:19:11.654Z,1024.42
2019-04-20T11:20:10.490Z,1024.46
2019-04-20T11:21:11.442Z,1024.43
2019-04-20T11:22:10.492Z,1024.47
2019-04-20T11:23:10.774Z,1024.49
2019-04-20T11:24:10.456Z,1024.47
2019-04-20T11:25:10.471Z,1024.35
2019-04-20T11:26:10.562Z,1024.44
2019-04-20T11:27:10.430Z,1024.38
2019-04-20T11:28:10.421Z,1024.45
2019-04-20T11:29:10.588Z,1024.39
2019-04-20T11:30:10.401Z,1024.40
2019-04-20T11:31:10.401Z,1024.36
2019-04-20T11:32:13.435Z,1024.37
2019-04-20T11:33:10.350Z,1024.38
2019-04-20T11:34:10.403Z,1024.27
2019-04-20T11:35:20.897Z,1024.33
2019-04-20T11:36:11.352Z,1024.26
2019-04-20T11:37:11.012Z,1024.28
2019-04-20T11:38:13.466Z,1024.37
2019-04-20T11:39:11.271Z,1024.26
2019-04-20T11:40:10.933Z,1024.26
2019-04-20T11:41:17.876Z,1024.28
2019-04-20T11:42:11.879Z,1024.30
2019-04-20T11:43:11.494Z,1024.17
2019-04-20T11:44:11.600Z,1024.17
2019-04-20T11:45:10.883Z,1024.20
2019-04-20T11:46:10.220Z,1024.13
2019-04-20T11:47:10.551Z,1024.17
2019-04-20T11:48:11.546Z,1024.20
2019-04-20T11:49:10.192Z,1024.12
2019-04-20T11:50:11.387Z,1024.12
2019-04-20T11:51:11.603Z,1024.08
2019-04-20T11:52:10.162Z,1024.12
2019-04-20T11:53:11.285Z,1024.05
2019-04-20T11:54:10.474Z,1024.03
2019-04-20T11:55:10.541Z,1024.08
2019-04-20T11:56:17.563Z,1024.02
2019-04-20T11:57:11.370Z,1024.05
2019-04-20T11:58:10.158Z,1024.09
2019-04-20T11:59:12.366Z,1024.01
2019-04-20T12:00:11.061Z,1024.00
2019-04-20T12:01:14.242Z,1023.98
2019-04-20T12:02:19.486Z,1024.00
2019-04-20T12:03:21.805Z,1024.01
2019-04-20T12:04:25.095Z,1024.01
2019-04-20T12:05:21.316Z,1023.95
2019-04-20T12:06:11.012Z,1023.90
2019-04-20T12:07:11.035Z,1023.96
2019-04-20T12:08:11.201Z,1023.98
2019-04-20T12:09:10.820Z,1024.00
2019-04-20T12:10:15.248Z,1023.91
2019-04-20T12:11:24.066Z,1023.88
2019-04-20T12:12:23.444Z,1023.91
2019-04-20T12:13:14.481Z,1023.88
2019-04-20T12:14:10.359Z,1023.87
2019-04-20T12:15:10.576Z,1023.79
2019-04-20T12:16:09.943Z,1023.79
2019-04-20T12:17:11.356Z,1023.79
2019-04-20T12:18:09.911Z,1023.84
2019-04-20T12:19:10.559Z,1023.82
2019-04-20T12:20:10.141Z,1023.79
2019-04-20T12:21:10.601Z,1023.79
2019-04-20T12:22:09.852Z,1023.74
2019-04-20T12:23:10.564Z,1023.78
2019-04-20T12:24:10.112Z,1023.69
2019-04-20T12:25:10.059Z,1023.80